Time;durP1;ratioP1;P1;durP2;ratioP2;P2;SDS_P1;SDS_P2;PMS_P1;PMS_P2;Temp;Humidity;BMP_temperature;BMP_pressure;BME280_temperature;BME280_humidity;BME280_pressure;Samples;Min_cycle;Max_cycle;Signal;HPM_P1;HPM_P2
2022/11/18 00:02:00;;;;;;;;;;;7.80;88.00;;;;;;5040764;28;19917;-75
2022/11/18 00:04:26;;;;;;;;;;;7.80;88.00;;;;;;5012151;28;20021;-76
2022/11/18 00:06:51;;;;;;;;;;;7.80;88.00;;;;;;5026393;28;20413;-76
2022/11/18 00:09:17;;;;;;;;;;;7.80;88.00;;;;;;5028592;28;19967;-76
2022/11/18 00:14:26;;;;;;;;;;;7.80;88.00;;;;;;5026831;28;19923;-77
2022/11/18 00:16:53;;;;;;;;;;;7.90;88.00;;;;;;5026673;28;20906;-76
2022/11/18 00:19:19;;;;;;;;;;;7.90;88.00;;;;;;5028930;28;19929;-76
2022/11/18 00:21:44;;;;;;;;;;;7.90;87.90;;;;;;5030252;28;19922;-75
2022/11/18 00:24:10;;;;;;;;;;;7.90;87.90;;;;;;5031510;28;20004;-75
2022/11/18 00:26:35;;;;;;;;;;;7.90;87.90;;;;;;5042710;28;19932;-75
2022/11/18 00:29:01;;;;;;;;;;;7.90;87.90;;;;;;5030278;28;20032;-76
2022/11/18 00:31:27;;;;;;;;;;;7.90;87.90;;;;;;5028648;28;19921;-75
2022/11/18 00:33:52;;;;;;;;;;;7.90;87.90;;;;;;5029011;28;19979;-76
2022/11/18 00:36:18;;;;;;;;;;;8.00;87.90;;;;;;5030756;28;19929;-75
2022/11/18 00:38:43;;;;;;;;;;;7.90;87.80;;;;;;5026958;28;19925;-75
2022/11/18 00:41:10;;;;;;;;;;;8.00;87.90;;;;;;5025604;28;19919;-75
2022/11/18 00:43:35;;;;;;;;;;;8.00;87.90;;;;;;5028175;28;19920;-75
2022/11/18 00:46:01;;;;;;;;;;;8.00;87.90;;;;;;5030784;28;19912;-75
2022/11/18 00:48:26;;;;;;;;;;;8.00;87.90;;;;;;5026782;28;20286;-76
2022/11/18 00:50:53;;;;;;;;;;;8.00;87.90;;;;;;5028315;28;19979;-76
2022/11/18 00:53:18;;;;;;;;;;;8.00;88.70;;;;;;5028367;28;19925;-76
2022/11/18 00:55:44;;;;;;;;;;;8.00;87.90;;;;;;5030669;28;19917;-75
2022/11/18 00:58:12;;;;;;;;;;;8.00;87.80;;;;;;5012155;28;19925;-74
2022/11/18 01:00:39;;;;;;;;;;;8.00;87.80;;;;;;5028847;28;20408;-76
2022/11/18 01:03:05;;;;;;;;;;;8.00;87.80;;;;;;5028225;28;19926;-75
2022/11/18 01:05:30;;;;;;;;;;;8.00;87.80;;;;;;5027972;28;19925;-75
2022/11/18 01:07:55;;;;;;;;;;;8.10;87.90;;;;;;5029538;28;20012;-75
2022/11/18 01:10:21;;;;;;;;;;;8.10;87.90;;;;;;5027792;28;19952;-75
2022/11/18 01:15:30;;;;;;;;;;;8.10;87.80;;;;;;5026689;28;19923;-76
2022/11/18 01:17:56;;;;;;;;;;;8.10;87.80;;;;;;5028584;28;19925;-75
2022/11/18 01:20:21;;;;;;;;;;;8.10;87.80;;;;;;5028406;28;19953;-75
2022/11/18 01:22:47;;;;;;;;;;;8.10;87.80;;;;;;5026365;28;19949;-75
2022/11/18 01:25:12;;;;;;;;;;;8.10;87.80;;;;;;5028343;28;20484;-76
2022/11/18 01:27:38;;;;;;;;;;;8.10;87.80;;;;;;5028698;28;19917;-73
2022/11/18 01:30:03;;;;;;;;;;;8.10;87.80;;;;;;5013443;28;19940;-74
2022/11/18 01:32:29;;;;;;;;;;;8.10;87.80;;;;;;5025561;28;20542;-76
2022/11/18 01:34:54;;;;;;;;;;;8.10;87.80;;;;;;5024106;28;19925;-74
2022/11/18 01:37:20;;;;;;;;;;;8.10;87.80;;;;;;5025335;28;19921;-74
2022/11/18 01:39:45;;;;;;;;;;;8.10;87.70;;;;;;5027458;28;20378;-74
2022/11/18 01:42:14;;;;;;;;;;;8.10;87.80;;;;;;5029182;28;19921;-74
2022/11/18 01:44:56;;;;;;;;;;;8.10;87.80;;;;;;5026528;28;19921;-76
2022/11/18 01:47:22;;;;;;;;;;;8.10;87.80;;;;;;5042996;28;19921;-75
2022/11/18 01:49:48;;;;;;;;;;;8.10;87.80;;;;;;5025770;28;19996;-75
2022/11/18 01:52:13;;;;;;;;;;;8.10;87.80;;;;;;5026992;28;19927;-76
2022/11/18 01:54:39;;;;;;;;;;;8.10;87.80;;;;;;5011461;28;19994;-75
2022/11/18 01:57:07;;;;;;;;;;;8.10;87.70;;;;;;5025693;28;19928;-74
2022/11/18 01:59:34;;;;;;;;;;;8.10;87.80;;;;;;5027972;28;19930;-75
2022/11/18 02:02:00;;;;;;;;;;;8.10;87.70;;;;;;5042735;28;19925;-75
2022/11/18 02:04:25;;;;;;;;;;;8.10;87.70;;;;;;5031550;28;19917;-76
2022/11/18 02:06:51;;;;;;;;;;;8.10;87.70;;;;;;5027489;28;20588;-75
2022/11/18 02:09:16;;;;;;;;;;;8.10;87.80;;;;;;5024880;28;19929;-75
2022/11/18 02:11:53;;;;;;;;;;;8.10;87.80;;;;;;5027671;28;19926;-75
2022/11/18 02:14:22;;;;;;;;;;;8.10;87.80;;;;;;5042610;28;19989;-75
2022/11/18 02:17:00;;;;;;;;;;;8.10;87.80;;;;;;5028729;28;19984;-75
2022/11/18 02:19:35;;;;;;;;;;;8.10;87.80;;;;;;5024712;28;20394;-76
2022/11/18 02:22:15;;;;;;;;;;;8.10;87.80;;;;;;5026961;28;19917;-75
2022/11/18 02:24:59;;;;;;;;;;;8.20;87.80;;;;;;5025391;28;19921;-75
2022/11/18 02:27:43;;;;;;;;;;;8.20;87.90;;;;;;5026032;28;19967;-75
2022/11/18 02:30:09;;;;;;;;;;;8.20;87.80;;;;;;5024372;28;19989;-74
2022/11/18 02:32:42;;;;;;;;;;;8.20;87.80;;;;;;5041421;28;19921;-74
2022/11/18 02:35:14;;;;;;;;;;;8.20;87.80;;;;;;5028996;28;19917;-76
2022/11/18 02:37:58;;;;;;;;;;;8.20;87.80;;;;;;5029929;28;19932;-75
2022/11/18 02:40:25;;;;;;;;;;;8.20;87.80;;;;;;5026779;28;19921;-75
2022/11/18 02:43:06;;;;;;;;;;;8.20;87.80;;;;;;5011261;28;19945;-76
2022/11/18 02:45:32;;;;;;;;;;;8.20;87.80;;;;;;5020677;28;19996;-76
2022/11/18 02:47:58;;;;;;;;;;;8.20;87.70;;;;;;5025379;28;19960;-76
2022/11/18 02:50:24;;;;;;;;;;;8.20;87.80;;;;;;5025916;28;19922;-76
2022/11/18 02:52:53;;;;;;;;;;;8.20;87.70;;;;;;5024783;28;19925;-76
2022/11/18 02:55:18;;;;;;;;;;;8.30;87.80;;;;;;5010899;28;19969;-76
2022/11/18 02:57:44;;;;;;;;;;;8.20;87.80;;;;;;5010688;28;19964;-76
2022/11/18 03:00:19;;;;;;;;;;;8.30;87.80;;;;;;5027656;28;19917;-74
2022/11/18 03:02:45;;;;;;;;;;;8.30;87.90;;;;;;5006143;28;19924;-74
2022/11/18 03:05:22;;;;;;;;;;;8.30;87.80;;;;;;5026778;28;19921;-76
2022/11/18 03:07:50;;;;;;;;;;;8.30;87.80;;;;;;5031446;28;19960;-76
2022/11/18 03:10:15;;;;;;;;;;;8.30;87.80;;;;;;5042530;28;19925;-76
2022/11/18 03:12:49;;;;;;;;;;;8.30;87.80;;;;;;5032624;28;19921;-76
2022/11/18 03:15:34;;;;;;;;;;;8.30;87.80;;;;;;5028550;28;20039;-76
2022/11/18 03:18:00;;;;;;;;;;;8.30;87.80;;;;;;5029688;28;20426;-76
2022/11/18 03:20:27;;;;;;;;;;;8.30;87.80;;;;;;5027461;28;19961;-76
2022/11/18 03:22:58;;;;;;;;;;;8.30;87.80;;;;;;5029112;28;19928;-77
2022/11/18 03:25:35;;;;;;;;;;;8.30;87.80;;;;;;5029940;28;19921;-76
2022/11/18 03:28:01;;;;;;;;;;;8.40;87.80;;;;;;5025808;28;19921;-76
2022/11/18 03:30:26;;;;;;;;;;;8.30;87.70;;;;;;5027480;28;19924;-76
2022/11/18 03:32:59;;;;;;;;;;;8.40;87.80;;;;;;5013199;28;20008;-76
2022/11/18 03:35:25;;;;;;;;;;;8.40;87.70;;;;;;5026389;28;19921;-76
2022/11/18 03:37:51;;;;;;;;;;;8.40;87.80;;;;;;5014918;28;19976;-76
2022/11/18 03:40:17;;;;;;;;;;;8.40;87.70;;;;;;5027629;28;19921;-76
2022/11/18 03:42:44;;;;;;;;;;;8.40;87.70;;;;;;5046857;28;19924;-76
2022/11/18 03:45:11;;;;;;;;;;;8.40;87.70;;;;;;5028568;28;20024;-75
2022/11/18 03:47:40;;;;;;;;;;;8.40;87.80;;;;;;5028254;28;19917;-76
2022/11/18 03:50:23;;;;;;;;;;;8.40;87.70;;;;;;5027423;28;19960;-75
2022/11/18 03:52:49;;;;;;;;;;;8.40;87.70;;;;;;5027992;28;19924;-73
2022/11/18 03:55:19;;;;;;;;;;;8.40;87.70;;;;;;5026784;28;20129;-77
2022/11/18 03:57:47;;;;;;;;;;;8.40;87.70;;;;;;5027808;28;19925;-76
2022/11/18 04:00:13;;;;;;;;;;;8.40;87.70;;;;;;5029896;28;19921;-74
2022/11/18 04:02:38;;;;;;;;;;;8.40;87.70;;;;;;5030364;28;19917;-76
2022/11/18 04:05:04;;;;;;;;;;;8.50;87.70;;;;;;5011699;28;20394;-75
2022/11/18 04:07:30;;;;;;;;;;;8.50;88.50;;;;;;5018675;28;20378;-73
2022/11/18 04:10:00;;;;;;;;;;;8.50;87.70;;;;;;5045894;28;19926;-75
2022/11/18 04:12:26;;;;;;;;;;;8.50;87.70;;;;;;5013531;28;20004;-76
2022/11/18 04:14:54;;;;;;;;;;;8.50;87.70;;;;;;5032187;28;19943;-75
2022/11/18 04:17:20;;;;;;;;;;;8.50;87.80;;;;;;5011270;28;19976;-76
2022/11/18 04:19:46;;;;;;;;;;;8.50;87.70;;;;;;5025448;28;20135;-76
2022/11/18 04:22:11;;;;;;;;;;;8.50;87.70;;;;;;5026282;28;19917;-76
2022/11/18 04:24:37;;;;;;;;;;;8.50;87.80;;;;;;5026793;28;20286;-76
2022/11/18 04:27:02;;;;;;;;;;;8.50;87.70;;;;;;5042207;28;19917;-75
2022/11/18 04:29:29;;;;;;;;;;;8.50;87.70;;;;;;5025933;28;19929;-76
2022/11/18 04:31:54;;;;;;;;;;;8.60;87.80;;;;;;5027431;28;19925;-75
2022/11/18 04:34:20;;;;;;;;;;;8.60;87.80;;;;;;5041958;28;19927;-76
2022/11/18 04:36:45;;;;;;;;;;;8.60;87.90;;;;;;5028761;28;19925;-76
2022/11/18 04:39:11;;;;;;;;;;;8.60;87.80;;;;;;5024219;28;19922;-76
2022/11/18 04:41:54;;;;;;;;;;;8.60;87.80;;;;;;5027782;28;19925;-75
2022/11/18 04:44:27;;;;;;;;;;;8.60;87.80;;;;;;5031189;28;19917;-76
2022/11/18 04:46:53;;;;;;;;;;;8.60;87.80;;;;;;5026394;28;19917;-74
2022/11/18 04:49:18;;;;;;;;;;;8.60;87.70;;;;;;5028579;28;19921;-74
2022/11/18 04:51:44;;;;;;;;;;;8.60;87.80;;;;;;5033374;28;19917;-74
2022/11/18 04:54:09;;;;;;;;;;;8.60;87.80;;;;;;5021897;28;20334;-73
2022/11/18 04:56:53;;;;;;;;;;;8.60;87.80;;;;;;5038759;28;19929;-75
2022/11/18 04:59:19;;;;;;;;;;;8.60;87.70;;;;;;4998138;28;19940;-75
2022/11/18 05:01:45;;;;;;;;;;;8.60;87.70;;;;;;5036276;28;19925;-74
2022/11/18 05:04:11;;;;;;;;;;;8.60;87.70;;;;;;5046107;28;21132;-74
2022/11/18 05:06:36;;;;;;;;;;;8.60;87.70;;;;;;5032818;28;19913;-74
2022/11/18 05:09:02;;;;;;;;;;;8.70;87.70;;;;;;5017226;28;19921;-74
2022/11/18 05:14:28;;;;;;;;;;;8.70;87.70;;;;;;4990104;28;19913;-76
2022/11/18 05:16:53;;;;;;;;;;;8.70;87.70;;;;;;5018786;28;19917;-75
2022/11/18 05:19:28;;;;;;;;;;;8.70;87.70;;;;;;5007629;28;19917;-76
2022/11/18 05:21:54;;;;;;;;;;;8.70;87.70;;;;;;5018288;28;19917;-75
2022/11/18 05:24:19;;;;;;;;;;;8.70;87.70;;;;;;5033903;28;19993;-75
2022/11/18 05:26:44;;;;;;;;;;;8.70;87.70;;;;;;5034098;28;19940;-76
2022/11/18 05:29:10;;;;;;;;;;;8.70;87.70;;;;;;5034736;28;19916;-75
2022/11/18 05:31:36;;;;;;;;;;;8.70;87.70;;;;;;5045780;28;19906;-75
2022/11/18 05:34:01;;;;;;;;;;;8.70;87.70;;;;;;5032443;28;19960;-75
2022/11/18 05:36:26;;;;;;;;;;;8.70;87.70;;;;;;5034837;28;19908;-75
2022/11/18 05:38:52;;;;;;;;;;;8.70;87.70;;;;;;5014211;28;19936;-74
2022/11/18 05:44:02;;;;;;;;;;;8.70;87.70;;;;;;5024101;28;19936;-75
2022/11/18 05:46:27;;;;;;;;;;;8.70;87.70;;;;;;5028878;28;19920;-75
2022/11/18 05:48:53;;;;;;;;;;;8.70;87.70;;;;;;5031761;28;19940;-76
2022/11/18 05:51:18;;;;;;;;;;;8.70;87.70;;;;;;5032012;28;19923;-75
2022/11/18 05:53:44;;;;;;;;;;;8.70;87.70;;;;;;5050506;28;19917;-74
2022/11/18 05:56:18;;;;;;;;;;;8.70;87.70;;;;;;5007484;28;19972;-75
2022/11/18 05:58:43;;;;;;;;;;;8.70;87.70;;;;;;5024656;28;20016;-76
2022/11/18 06:01:09;;;;;;;;;;;8.70;87.70;;;;;;5012581;28;19944;-75
2022/11/18 06:03:35;;;;;;;;;;;8.70;87.70;;;;;;5034849;28;19981;-74
2022/11/18 06:06:01;;;;;;;;;;;8.70;87.70;;;;;;5030012;28;19924;-75
2022/11/18 06:08:28;;;;;;;;;;;8.80;87.70;;;;;;5029075;28;19924;-77
2022/11/18 06:10:53;;;;;;;;;;;8.80;87.80;;;;;;5028188;28;19952;-76
2022/11/18 06:13:19;;;;;;;;;;;8.70;87.70;;;;;;5035140;28;19993;-77
2022/11/18 06:15:45;;;;;;;;;;;8.70;87.70;;;;;;5035260;28;19925;-76
2022/11/18 06:18:15;;;;;;;;;;;8.80;87.80;;;;;;5029435;28;19932;-75
2022/11/18 06:20:40;;;;;;;;;;;8.70;87.70;;;;;;5029961;28;19922;-75
2022/11/18 06:23:06;;;;;;;;;;;8.80;87.80;;;;;;5029053;28;19925;-75
2022/11/18 06:25:32;;;;;;;;;;;8.80;87.80;;;;;;5030139;28;20076;-75
2022/11/18 06:27:58;;;;;;;;;;;8.80;87.80;;;;;;5029672;28;19932;-76
2022/11/18 06:30:23;;;;;;;;;;;8.70;87.70;;;;;;5026490;28;19921;-75
2022/11/18 06:32:49;;;;;;;;;;;8.80;87.80;;;;;;5030624;28;19979;-75
2022/11/18 06:35:14;;;;;;;;;;;8.80;87.80;;;;;;5032202;28;19956;-76
2022/11/18 06:37:40;;;;;;;;;;;8.80;87.80;;;;;;5035234;28;19980;-76
2022/11/18 06:40:06;;;;;;;;;;;8.80;87.70;;;;;;5036566;28;19921;-74
2022/11/18 06:45:16;;;;;;;;;;;8.80;87.70;;;;;;5034320;28;19936;-75
2022/11/18 06:47:41;;;;;;;;;;;8.80;87.70;;;;;;5038064;28;19917;-76
2022/11/18 06:50:07;;;;;;;;;;;8.80;87.70;;;;;;5029546;28;19917;-75
2022/11/18 06:52:32;;;;;;;;;;;8.80;87.80;;;;;;5037167;28;19967;-76
2022/11/18 06:54:58;;;;;;;;;;;8.80;87.70;;;;;;5034753;28;19928;-76
2022/11/18 06:57:23;;;;;;;;;;;8.80;87.70;;;;;;5033055;28;19925;-76
2022/11/18 06:59:49;;;;;;;;;;;8.80;87.80;;;;;;5020030;28;19905;-77
2022/11/18 07:02:17;;;;;;;;;;;8.80;87.70;;;;;;5033902;28;19925;-78
2022/11/18 07:04:43;;;;;;;;;;;8.80;87.70;;;;;;5028054;28;19921;-75
2022/11/18 07:07:09;;;;;;;;;;;8.80;87.70;;;;;;5038197;28;19955;-76
2022/11/18 07:09:34;;;;;;;;;;;8.80;87.70;;;;;;5036733;28;20031;-76
2022/11/18 07:12:00;;;;;;;;;;;8.80;87.80;;;;;;5036323;28;19976;-76
2022/11/18 07:14:25;;;;;;;;;;;8.80;87.80;;;;;;5035634;28;20313;-76
2022/11/18 07:16:51;;;;;;;;;;;8.80;87.70;;;;;;5035688;28;19925;-76
2022/11/18 07:19:16;;;;;;;;;;;8.80;87.70;;;;;;5033816;28;20041;-77
2022/11/18 07:21:42;;;;;;;;;;;8.80;87.70;;;;;;5035560;28;20169;-76
2022/11/18 07:24:07;;;;;;;;;;;8.90;87.80;;;;;;5036572;28;19918;-77
2022/11/18 07:26:33;;;;;;;;;;;8.80;87.70;;;;;;5032217;28;20317;-76
2022/11/18 07:28:59;;;;;;;;;;;8.90;87.80;;;;;;5034398;28;19936;-78
2022/11/18 07:31:24;;;;;;;;;;;8.80;87.70;;;;;;5007304;28;19917;-76
2022/11/18 07:33:53;;;;;;;;;;;8.90;87.80;;;;;;5038828;28;20412;-76
2022/11/18 07:36:19;;;;;;;;;;;8.90;87.80;;;;;;5037058;28;19932;-76
2022/11/18 07:38:45;;;;;;;;;;;8.90;87.80;;;;;;5019302;28;20642;-75
2022/11/18 07:41:17;;;;;;;;;;;8.90;87.80;;;;;;5035775;28;19927;-77
2022/11/18 07:43:43;;;;;;;;;;;8.90;87.80;;;;;;5017870;28;19913;-75
2022/11/18 07:46:13;;;;;;;;;;;8.90;87.80;;;;;;5038371;28;19921;-74
2022/11/18 07:48:38;;;;;;;;;;;8.90;87.90;;;;;;5035505;28;19940;-75
2022/11/18 07:51:04;;;;;;;;;;;8.90;87.80;;;;;;5016736;28;19928;-74
2022/11/18 07:53:30;;;;;;;;;;;8.90;87.80;;;;;;5033929;28;20689;-75
2022/11/18 07:55:55;;;;;;;;;;;8.90;87.80;;;;;;5033869;28;19988;-75
2022/11/18 07:58:21;;;;;;;;;;;8.90;87.80;;;;;;5033676;28;19993;-77
2022/11/18 08:00:46;;;;;;;;;;;8.90;87.80;;;;;;5032851;28;19925;-75
2022/11/18 08:03:12;;;;;;;;;;;8.90;87.70;;;;;;5032977;28;19949;-77
2022/11/18 08:05:37;;;;;;;;;;;8.90;87.70;;;;;;5030896;28;19921;-74
2022/11/18 08:08:03;;;;;;;;;;;8.90;87.70;;;;;;5035296;28;19975;-75
2022/11/18 08:10:29;;;;;;;;;;;8.90;87.70;;;;;;5050502;28;19940;-76
2022/11/18 08:12:55;;;;;;;;;;;8.90;87.70;;;;;;5032344;28;19953;-74
2022/11/18 08:15:20;;;;;;;;;;;8.90;87.70;;;;;;5033773;28;20009;-75
2022/11/18 08:17:46;;;;;;;;;;;8.90;87.80;;;;;;5037295;28;20012;-75
2022/11/18 08:20:12;;;;;;;;;;;9.00;87.90;;;;;;5032710;28;19913;-77
2022/11/18 08:22:37;;;;;;;;;;;8.90;87.70;;;;;;5038983;28;19913;-74
2022/11/18 08:25:03;;;;;;;;;;;9.00;87.90;;;;;;5042386;28;20142;-77
2022/11/18 08:27:30;;;;;;;;;;;9.00;87.80;;;;;;5043542;28;19979;-77
2022/11/18 08:29:55;;;;;;;;;;;9.00;87.80;;;;;;5038889;28;19921;-77
2022/11/18 08:32:21;;;;;;;;;;;9.00;87.70;;;;;;5038210;28;20223;-76
2022/11/18 08:34:46;;;;;;;;;;;9.00;87.70;;;;;;5042884;28;19913;-76
2022/11/18 08:37:11;;;;;;;;;;;9.00;87.70;;;;;;5030323;28;19921;-75
2022/11/18 08:39:37;;;;;;;;;;;9.10;87.80;;;;;;5040215;28;19985;-75
2022/11/18 08:42:02;;;;;;;;;;;9.10;87.80;;;;;;5038206;28;21479;-77
2022/11/18 08:44:30;;;;;;;;;;;9.10;87.70;;;;;;5041952;28;19925;-77
2022/11/18 08:46:55;;;;;;;;;;;9.10;87.70;;;;;;5039555;28;19928;-76
2022/11/18 08:49:21;;;;;;;;;;;9.20;87.70;;;;;;5039772;28;19926;-76
2022/11/18 08:51:46;;;;;;;;;;;9.20;87.70;;;;;;5038057;28;19921;-76
2022/11/18 08:54:12;;;;;;;;;;;9.20;87.70;;;;;;5040007;28;19921;-75
2022/11/18 08:56:38;;;;;;;;;;;9.20;87.70;;;;;;5037118;28;19921;-74
2022/11/18 08:59:03;;;;;;;;;;;9.30;87.70;;;;;;5036334;28;20388;-75
2022/11/18 09:01:28;;;;;;;;;;;9.30;87.70;;;;;;5021222;28;19987;-75
2022/11/18 09:03:54;;;;;;;;;;;9.30;87.60;;;;;;5033636;28;19925;-75
2022/11/18 09:06:20;;;;;;;;;;;9.40;87.70;;;;;;5033912;28;19917;-76
2022/11/18 09:08:46;;;;;;;;;;;9.40;87.70;;;;;;5033150;28;19921;-77
2022/11/18 09:11:19;;;;;;;;;;;9.40;87.70;;;;;;5016326;28;19975;-76
2022/11/18 09:13:45;;;;;;;;;;;9.50;87.60;;;;;;5033031;28;19935;-75
2022/11/18 09:16:11;;;;;;;;;;;9.50;87.60;;;;;;5035096;28;19945;-76
2022/11/18 09:18:36;;;;;;;;;;;9.50;87.60;;;;;;5038548;28;19949;-75
2022/11/18 09:21:05;;;;;;;;;;;9.60;88.40;;;;;;5035002;28;19920;-74
2022/11/18 09:23:31;;;;;;;;;;;9.70;87.60;;;;;;5040655;28;20002;-75
2022/11/18 09:25:59;;;;;;;;;;;9.70;87.60;;;;;;5033972;28;19914;-75
2022/11/18 09:28:25;;;;;;;;;;;9.70;87.60;;;;;;5035739;28;20338;-75
2022/11/18 09:30:50;;;;;;;;;;;9.80;87.50;;;;;;5030422;28;19921;-75
2022/11/18 09:33:16;;;;;;;;;;;9.80;87.50;;;;;;5032383;28;19917;-75
2022/11/18 09:35:42;;;;;;;;;;;9.90;87.60;;;;;;5031650;28;19917;-76
2022/11/18 09:38:07;;;;;;;;;;;9.90;87.40;;;;;;5035369;28;19922;-74
2022/11/18 09:40:33;;;;;;;;;;;9.90;87.40;;;;;;5035920;28;20011;-76
2022/11/18 09:43:10;;;;;;;;;;;10.00;87.40;;;;;;5017057;28;20198;-75
2022/11/18 09:45:39;;;;;;;;;;;10.00;87.30;;;;;;5034840;28;19921;-75
2022/11/18 09:48:17;;;;;;;;;;;10.10;87.40;;;;;;5021577;28;20255;-75
2022/11/18 09:50:42;;;;;;;;;;;10.10;87.30;;;;;;5022867;28;19928;-75
2022/11/18 09:53:08;;;;;;;;;;;10.20;87.30;;;;;;5035650;28;19917;-75
2022/11/18 09:55:35;;;;;;;;;;;10.20;87.30;;;;;;5036903;28;20381;-75
2022/11/18 09:58:00;;;;;;;;;;;10.20;87.20;;;;;;5017069;28;20128;-75
2022/11/18 10:00:26;;;;;;;;;;;10.20;87.20;;;;;;5031221;28;19928;-76
2022/11/18 10:03:05;;;;;;;;;;;10.30;87.30;;;;;;5031001;28;19922;-75
2022/11/18 10:05:50;;;;;;;;;;;10.30;87.20;;;;;;5032291;28;19921;-75
2022/11/18 10:08:29;;;;;;;;;;;10.30;87.10;;;;;;5033567;28;19924;-76
2022/11/18 10:10:57;;;;;;;;;;;10.40;87.10;;;;;;5033377;28;21129;-76
2022/11/18 10:13:38;;;;;;;;;;;10.40;87.10;;;;;;5028179;28;20016;-75
2022/11/18 10:16:12;;;;;;;;;;;10.40;87.10;;;;;;5026629;28;19957;-75
2022/11/18 10:18:42;;;;;;;;;;;10.40;87.00;;;;;;5028865;28;19930;-76
2022/11/18 10:21:20;;;;;;;;;;;10.50;87.10;;;;;;5035080;28;19922;-75
2022/11/18 10:23:58;;;;;;;;;;;10.50;87.10;;;;;;5037042;28;19932;-76
2022/11/18 10:26:36;;;;;;;;;;;10.50;87.00;;;;;;5036306;28;19917;-75
2022/11/18 10:29:02;;;;;;;;;;;10.50;87.00;;;;;;5034706;28;20453;-75
2022/11/18 10:31:28;;;;;;;;;;;10.60;87.10;;;;;;5035703;28;19920;-76
2022/11/18 10:33:59;;;;;;;;;;;10.60;87.00;;;;;;5035043;28;19928;-76
2022/11/18 10:36:35;;;;;;;;;;;10.70;87.10;;;;;;5033058;28;19943;-75
2022/11/18 10:39:08;;;;;;;;;;;10.70;87.00;;;;;;5034290;28;19927;-75
2022/11/18 10:41:54;;;;;;;;;;;10.70;86.90;;;;;;5034410;28;19932;-76
2022/11/18 10:44:29;;;;;;;;;;;10.80;87.00;;;;;;5050556;28;20031;-75
2022/11/18 10:46:55;;;;;;;;;;;10.80;86.90;;;;;;5033898;28;20011;-74
2022/11/18 10:49:20;;;;;;;;;;;10.80;86.80;;;;;;5050978;28;20365;-76
2022/11/18 10:51:47;;;;;;;;;;;10.80;86.80;;;;;;5018564;28;19926;-76
2022/11/18 10:54:15;;;;;;;;;;;10.80;86.80;;;;;;5015601;28;19913;-74
2022/11/18 10:56:44;;;;;;;;;;;10.80;86.80;;;;;;5031639;28;19932;-75
2022/11/18 10:59:19;;;;;;;;;;;10.80;86.80;;;;;;5029824;28;19921;-74
2022/11/18 11:01:55;;;;;;;;;;;10.90;86.80;;;;;;5035396;28;20313;-76
2022/11/18 11:04:24;;;;;;;;;;;10.90;86.80;;;;;;5031637;28;19952;-73
2022/11/18 11:06:49;;;;;;;;;;;10.90;86.80;;;;;;5031055;28;19921;-74
2022/11/18 11:09:15;;;;;;;;;;;10.90;86.80;;;;;;5026842;28;19941;-74
2022/11/18 11:11:42;;;;;;;;;;;11.00;86.80;;;;;;5026884;28;19917;-75
2022/11/18 11:14:26;;;;;;;;;;;11.00;86.80;;;;;;5041786;28;19921;-76
2022/11/18 11:16:58;;;;;;;;;;;11.10;86.80;;;;;;5037536;28;19945;-75
2022/11/18 11:19:25;;;;;;;;;;;11.20;86.80;;;;;;5024054;28;19952;-76
2022/11/18 11:21:51;;;;;;;;;;;11.30;86.70;;;;;;5020089;28;19944;-76
2022/11/18 11:24:16;;;;;;;;;;;11.40;86.60;;;;;;5038333;28;20306;-76
2022/11/18 11:26:48;;;;;;;;;;;11.40;86.50;;;;;;5039331;28;20377;-76
2022/11/18 11:29:26;;;;;;;;;;;11.50;86.40;;;;;;5022836;28;19920;-75
2022/11/18 11:32:14;;;;;;;;;;;11.50;86.40;;;;;;5038071;28;19949;-76
2022/11/18 11:34:46;;;;;;;;;;;11.50;86.30;;;;;;5034291;28;19924;-75
2022/11/18 11:37:30;;;;;;;;;;;11.40;86.20;;;;;;5038477;28;19925;-75
2022/11/18 11:40:06;;;;;;;;;;;11.50;86.30;;;;;;5040723;28;19917;-76
2022/11/18 11:42:32;;;;;;;;;;;11.40;86.30;;;;;;5023143;28;20113;-77
2022/11/18 11:45:06;;;;;;;;;;;11.40;86.30;;;;;;5043870;28;19920;-76
2022/11/18 11:47:55;;;;;;;;;;;11.50;86.40;;;;;;5041489;28;19917;-75
2022/11/18 11:50:22;;;;;;;;;;;11.50;86.30;;;;;;5040764;28;19919;-76
2022/11/18 11:52:59;;;;;;;;;;;11.40;86.20;;;;;;5043378;28;19948;-75
2022/11/18 11:55:24;;;;;;;;;;;11.50;86.30;;;;;;5026431;28;19917;-75
2022/11/18 11:58:08;;;;;;;;;;;11.50;86.20;;;;;;5037853;28;19921;-77
2022/11/18 12:00:37;;;;;;;;;;;11.40;86.30;;;;;;5040866;28;20009;-77
2022/11/18 12:03:12;;;;;;;;;;;11.40;86.20;;;;;;5056792;28;19931;-76
2022/11/18 12:05:39;;;;;;;;;;;11.40;86.30;;;;;;5037672;28;20377;-77
2022/11/18 12:08:23;;;;;;;;;;;11.40;86.20;;;;;;5026001;28;19956;-76
2022/11/18 12:10:49;;;;;;;;;;;11.50;86.30;;;;;;5035484;28;19939;-77
2022/11/18 12:13:20;;;;;;;;;;;11.40;86.30;;;;;;5040309;28;20085;-77
2022/11/18 12:15:45;;;;;;;;;;;11.40;86.30;;;;;;5034176;28;19932;-75
2022/11/18 12:18:29;;;;;;;;;;;11.40;86.20;;;;;;5037347;28;19925;-75
2022/11/18 12:20:55;;;;;;;;;;;11.40;86.20;;;;;;5039782;28;20137;-76
2022/11/18 12:23:20;;;;;;;;;;;11.40;86.20;;;;;;5043374;28;19921;-76
2022/11/18 12:25:52;;;;;;;;;;;11.40;86.30;;;;;;5045679;28;20028;-76
2022/11/18 12:28:21;;;;;;;;;;;11.30;86.20;;;;;;5041877;28;19956;-77
2022/11/18 12:30:47;;;;;;;;;;;11.30;86.20;;;;;;5040600;28;20099;-76
2022/11/18 12:33:13;;;;;;;;;;;11.30;86.30;;;;;;5043469;28;19905;-76
2022/11/18 12:35:39;;;;;;;;;;;11.30;86.20;;;;;;5038581;28;19980;-76
2022/11/18 12:38:04;;;;;;;;;;;11.30;86.30;;;;;;5044911;28;19929;-75
2022/11/18 12:40:39;;;;;;;;;;;11.30;86.30;;;;;;5042385;28;19925;-76
2022/11/18 12:46:07;;;;;;;;;;;11.30;86.30;;;;;;5038879;28;19944;-76
2022/11/18 12:48:33;;;;;;;;;;;11.30;86.30;;;;;;5040392;28;19917;-75
2022/11/18 12:50:59;;;;;;;;;;;11.30;86.30;;;;;;5039438;28;19921;-76
2022/11/18 12:53:38;;;;;;;;;;;11.30;86.20;;;;;;5039711;28;19917;-76
2022/11/18 12:56:22;;;;;;;;;;;11.30;86.20;;;;;;5055137;28;19917;-76
2022/11/18 12:58:51;;;;;;;;;;;11.30;86.20;;;;;;5038298;28;19921;-77
2022/11/18 13:01:18;;;;;;;;;;;11.30;86.30;;;;;;5031096;28;19944;-76
2022/11/18 13:03:43;;;;;;;;;;;11.30;86.30;;;;;;5039684;28;19917;-76
2022/11/18 13:06:15;;;;;;;;;;;11.30;86.40;;;;;;5034511;28;20001;-74
2022/11/18 13:08:41;;;;;;;;;;;11.30;86.40;;;;;;5036399;28;19924;-76
2022/11/18 13:19:54;;;;;;;;;;;11.40;86.40;;;;;;4966897;28;20005;-76
2022/11/18 13:25:04;;;;;;;;;;;11.40;86.30;;;;;;5035667;28;21354;-76
2022/11/18 13:27:46;;;;;;;;;;;11.40;86.30;;;;;;5036779;28;20250;-75
2022/11/18 13:30:12;;;;;;;;;;;11.50;86.30;;;;;;5034647;28;19928;-76
2022/11/18 13:32:41;;;;;;;;;;;11.50;86.30;;;;;;5034501;28;19984;-75
2022/11/18 13:35:10;;;;;;;;;;;11.50;86.20;;;;;;5036948;28;19948;-76
2022/11/18 13:37:36;;;;;;;;;;;11.50;86.20;;;;;;5037968;28;19956;-74
2022/11/18 13:40:01;;;;;;;;;;;11.60;86.30;;;;;;5037679;28;20045;-75
2022/11/18 13:42:27;;;;;;;;;;;11.60;86.30;;;;;;5021489;28;19921;-75
2022/11/18 13:44:56;;;;;;;;;;;11.70;86.30;;;;;;5047961;28;19913;-76
2022/11/18 13:47:39;;;;;;;;;;;11.60;86.20;;;;;;5053336;28;19921;-76
2022/11/18 13:50:21;;;;;;;;;;;11.70;86.30;;;;;;5020386;28;19925;-75
2022/11/18 13:52:46;;;;;;;;;;;11.70;86.10;;;;;;5031389;28;19948;-76
2022/11/18 13:55:22;;;;;;;;;;;11.80;86.10;;;;;;5039044;28;20272;-75
2022/11/18 13:57:51;;;;;;;;;;;11.80;86.90;;;;;;5032327;28;19921;-75
2022/11/18 14:00:20;;;;;;;;;;;11.80;86.10;;;;;;5037764;28;19917;-76
2022/11/18 14:02:47;;;;;;;;;;;11.80;86.00;;;;;;5020651;28;20463;-76
2022/11/18 14:05:16;;;;;;;;;;;11.80;86.00;;;;;;5039866;28;20121;-76
2022/11/18 14:07:51;;;;;;;;;;;11.80;86.00;;;;;;5013346;28;19943;-75
2022/11/18 14:10:16;;;;;;;;;;;11.80;86.00;;;;;;5037073;28;19925;-75
2022/11/18 14:12:42;;;;;;;;;;;11.80;86.00;;;;;;5034364;28;19929;-74
2022/11/18 14:15:30;;;;;;;;;;;11.80;85.90;;;;;;5031989;28;19921;-75
2022/11/18 14:17:56;;;;;;;;;;;11.80;85.90;;;;;;5023598;28;19936;-75
2022/11/18 14:20:22;;;;;;;;;;;11.80;85.90;;;;;;5035753;28;19921;-75
2022/11/18 14:22:49;;;;;;;;;;;11.80;85.90;;;;;;5033490;28;19932;-75
2022/11/18 14:25:15;;;;;;;;;;;11.70;85.90;;;;;;5017087;28;20118;-75
2022/11/18 14:27:41;;;;;;;;;;;11.70;86.00;;;;;;5033773;28;19921;-75
2022/11/18 14:30:22;;;;;;;;;;;11.70;86.00;;;;;;5037292;28;19917;-75
2022/11/18 14:33:14;;;;;;;;;;;11.70;86.00;;;;;;5033717;28;20281;-76
2022/11/18 14:35:40;;;;;;;;;;;11.70;86.00;;;;;;5025406;28;19917;-75
2022/11/18 14:38:10;;;;;;;;;;;11.70;86.00;;;;;;5032232;28;20004;-74
2022/11/18 14:40:36;;;;;;;;;;;11.70;86.00;;;;;;5036003;28;19981;-74
2022/11/18 14:43:01;;;;;;;;;;;11.70;86.00;;;;;;5033563;28;19933;-76
2022/11/18 14:45:27;;;;;;;;;;;11.70;86.00;;;;;;5032920;28;19963;-74
2022/11/18 14:47:52;;;;;;;;;;;11.70;86.00;;;;;;5037547;28;19984;-75
2022/11/18 14:50:17;;;;;;;;;;;11.70;86.00;;;;;;5034458;28;19922;-74
2022/11/18 14:52:43;;;;;;;;;;;11.60;85.90;;;;;;5037089;28;19918;-75
2022/11/18 14:55:09;;;;;;;;;;;11.60;85.90;;;;;;5048741;28;19964;-74
2022/11/18 14:57:34;;;;;;;;;;;11.60;85.90;;;;;;5035060;28;19929;-75
2022/11/18 15:00:00;;;;;;;;;;;11.60;85.90;;;;;;5033406;28;19971;-75
2022/11/18 15:02:25;;;;;;;;;;;11.50;85.90;;;;;;5031696;28;20389;-75